sensor_id;sensor_type;location;lat;lon;timestamp;P1;durP1;ratioP1;P2;durP2;ratioP2
7989;SDS011;4040;42.848;23.034;2023-02-01T00:01:34;7.07;;;4.93;;
7989;SDS011;4040;42.848;23.034;2023-02-01T00:04:01;5.73;;;4.87;;
7989;SDS011;4040;42.848;23.034;2023-02-01T00:06:29;8.83;;;5.33;;
7989;SDS011;4040;42.848;23.034;2023-02-01T00:08:56;7.83;;;5.90;;
7989;SDS011;4040;42.848;23.034;2023-02-01T00:11:25;6.80;;;5.50;;
7989;SDS011;4040;42.848;23.034;2023-02-01T00:13:52;12.57;;;4.97;;
7989;SDS011;4040;42.848;23.034;2023-02-01T00:16:20;9.37;;;5.90;;
7989;SDS011;4040;42.848;23.034;2023-02-01T00:18:49;5.77;;;4.80;;
7989;SDS011;4040;42.848;23.034;2023-02-01T00:21:19;6.47;;;4.33;;
7989;SDS011;4040;42.848;23.034;2023-02-01T00:23:47;8.97;;;5.43;;
7989;SDS011;4040;42.848;23.034;2023-02-01T00:26:16;6.03;;;5.00;;
7989;SDS011;4040;42.848;23.034;2023-02-01T00:28:46;7.70;;;5.27;;
7989;SDS011;4040;42.848;23.034;2023-02-01T00:31:13;7.27;;;5.50;;
7989;SDS011;4040;42.848;23.034;2023-02-01T00:33:41;8.97;;;5.70;;
7989;SDS011;4040;42.848;23.034;2023-02-01T00:36:08;8.47;;;5.40;;
7989;SDS011;4040;42.848;23.034;2023-02-01T00:38:36;8.50;;;4.80;;
7989;SDS011;4040;42.848;23.034;2023-02-01T00:41:05;4.87;;;4.33;;
7989;SDS011;4040;42.848;23.034;2023-02-01T00:43:34;6.37;;;5.10;;
7989;SDS011;4040;42.848;23.034;2023-02-01T00:46:03;6.00;;;5.00;;
7989;SDS011;4040;42.848;23.034;2023-02-01T00:48:30;6.73;;;4.80;;
7989;SDS011;4040;42.848;23.034;2023-02-01T00:50:58;11.60;;;6.57;;
7989;SDS011;4040;42.848;23.034;2023-02-01T00:53:26;12.53;;;7.10;;
7989;SDS011;4040;42.848;23.034;2023-02-01T00:55:53;11.00;;;5.33;;
7989;SDS011;4040;42.848;23.034;2023-02-01T00:58:21;11.13;;;6.03;;
7989;SDS011;4040;42.848;23.034;2023-02-01T01:00:59;10.33;;;6.27;;
7989;SDS011;4040;42.848;23.034;2023-02-01T01:03:30;9.60;;;5.63;;
7989;SDS011;4040;42.848;23.034;2023-02-01T01:05:59;15.83;;;6.03;;
7989;SDS011;4040;42.848;23.034;2023-02-01T01:08:28;8.50;;;5.07;;
7989;SDS011;4040;42.848;23.034;2023-02-01T01:10:56;9.07;;;4.97;;
7989;SDS011;4040;42.848;23.034;2023-02-01T01:13:23;12.37;;;5.63;;
7989;SDS011;4040;42.848;23.034;2023-02-01T01:15:51;7.83;;;5.30;;
7989;SDS011;4040;42.848;23.034;2023-02-01T01:18:18;7.33;;;4.80;;
7989;SDS011;4040;42.848;23.034;2023-02-01T01:20:47;7.33;;;5.20;;
7989;SDS011;4040;42.848;23.034;2023-02-01T01:23:14;13.40;;;6.00;;
7989;SDS011;4040;42.848;23.034;2023-02-01T01:25:41;8.57;;;4.63;;
7989;SDS011;4040;42.848;23.034;2023-02-01T01:28:09;9.03;;;4.73;;
7989;SDS011;4040;42.848;23.034;2023-02-01T01:30:36;7.97;;;4.83;;
7989;SDS011;4040;42.848;23.034;2023-02-01T01:33:03;6.53;;;4.80;;
7989;SDS011;4040;42.848;23.034;2023-02-01T01:35:31;6.93;;;4.00;;
7989;SDS011;4040;42.848;23.034;2023-02-01T01:38:00;5.27;;;4.20;;
7989;SDS011;4040;42.848;23.034;2023-02-01T01:40:28;6.20;;;4.67;;
7989;SDS011;4040;42.848;23.034;2023-02-01T01:42:56;10.03;;;4.13;;
7989;SDS011;4040;42.848;23.034;2023-02-01T01:45:24;4.13;;;3.70;;
7989;SDS011;4040;42.848;23.034;2023-02-01T01:47:53;5.27;;;3.63;;
7989;SDS011;4040;42.848;23.034;2023-02-01T01:50:23;6.87;;;4.27;;
7989;SDS011;4040;42.848;23.034;2023-02-01T01:52:52;14.33;;;5.93;;
7989;SDS011;4040;42.848;23.034;2023-02-01T01:55:23;18.73;;;8.47;;
7989;SDS011;4040;42.848;23.034;2023-02-01T01:57:53;11.73;;;6.10;;
7989;SDS011;4040;42.848;23.034;2023-02-01T02:00:24;10.37;;;4.70;;
7989;SDS011;4040;42.848;23.034;2023-02-01T02:02:53;10.77;;;6.53;;
7989;SDS011;4040;42.848;23.034;2023-02-01T02:05:24;7.33;;;4.73;;
7989;SDS011;4040;42.848;23.034;2023-02-01T02:07:54;6.77;;;5.47;;
7989;SDS011;4040;42.848;23.034;2023-02-01T02:10:27;13.23;;;5.93;;
7989;SDS011;4040;42.848;23.034;2023-02-01T02:13:09;6.07;;;4.07;;
7989;SDS011;4040;42.848;23.034;2023-02-01T02:15:37;9.93;;;4.07;;
7989;SDS011;4040;42.848;23.034;2023-02-01T02:18:12;11.37;;;5.83;;
7989;SDS011;4040;42.848;23.034;2023-02-01T02:20:49;6.37;;;4.33;;
7989;SDS011;4040;42.848;23.034;2023-02-01T02:23:44;8.43;;;5.07;;
7989;SDS011;4040;42.848;23.034;2023-02-01T02:26:36;6.63;;;4.33;;
7989;SDS011;4040;42.848;23.034;2023-02-01T02:29:19;7.83;;;4.97;;
7989;SDS011;4040;42.848;23.034;2023-02-01T02:32:19;6.43;;;4.70;;
7989;SDS011;4040;42.848;23.034;2023-02-01T02:35:09;10.30;;;5.33;;
7989;SDS011;4040;42.848;23.034;2023-02-01T02:37:46;11.03;;;5.93;;
7989;SDS011;4040;42.848;23.034;2023-02-01T02:40:21;8.83;;;4.53;;
7989;SDS011;4040;42.848;23.034;2023-02-01T02:42:57;7.83;;;4.60;;
7989;SDS011;4040;42.848;23.034;2023-02-01T02:45:44;7.20;;;3.90;;
7989;SDS011;4040;42.848;23.034;2023-02-01T02:48:36;7.83;;;4.13;;
7989;SDS011;4040;42.848;23.034;2023-02-01T02:51:14;8.07;;;3.80;;
7989;SDS011;4040;42.848;23.034;2023-02-01T02:54:21;7.77;;;4.17;;
7989;SDS011;4040;42.848;23.034;2023-02-01T02:57:08;8.77;;;5.43;;
7989;SDS011;4040;42.848;23.034;2023-02-01T02:59:55;6.77;;;4.33;;
7989;SDS011;4040;42.848;23.034;2023-02-01T03:02:43;10.53;;;4.50;;
7989;SDS011;4040;42.848;23.034;2023-02-01T03:05:32;7.90;;;4.90;;
7989;SDS011;4040;42.848;23.034;2023-02-01T03:08:03;10.67;;;5.00;;
7989;SDS011;4040;42.848;23.034;2023-02-01T03:10:47;7.33;;;4.73;;
7989;SDS011;4040;42.848;23.034;2023-02-01T03:13:20;9.27;;;4.70;;
7989;SDS011;4040;42.848;23.034;2023-02-01T03:15:53;6.97;;;4.53;;
7989;SDS011;4040;42.848;23.034;2023-02-01T03:18:30;8.60;;;4.73;;
7989;SDS011;4040;42.848;23.034;2023-02-01T03:21:04;8.47;;;5.57;;
7989;SDS011;4040;42.848;23.034;2023-02-01T03:23:38;19.30;;;9.50;;
7989;SDS011;4040;42.848;23.034;2023-02-01T03:26:07;19.73;;;10.07;;
7989;SDS011;4040;42.848;23.034;2023-02-01T03:28:41;10.50;;;5.73;;
7989;SDS011;4040;42.848;23.034;2023-02-01T03:31:11;7.83;;;4.40;;
7989;SDS011;4040;42.848;23.034;2023-02-01T03:33:39;8.13;;;4.33;;
7989;SDS011;4040;42.848;23.034;2023-02-01T03:36:10;7.83;;;4.60;;
7989;SDS011;4040;42.848;23.034;2023-02-01T03:38:48;10.37;;;4.70;;
7989;SDS011;4040;42.848;23.034;2023-02-01T03:41:23;6.13;;;3.90;;
7989;SDS011;4040;42.848;23.034;2023-02-01T03:43:55;9.80;;;4.00;;
7989;SDS011;4040;42.848;23.034;2023-02-01T03:46:26;8.40;;;4.23;;
7989;SDS011;4040;42.848;23.034;2023-02-01T03:48:59;6.87;;;4.20;;
7989;SDS011;4040;42.848;23.034;2023-02-01T03:51:30;6.40;;;4.13;;
7989;SDS011;4040;42.848;23.034;2023-02-01T03:53:59;11.23;;;4.73;;
7989;SDS011;4040;42.848;23.034;2023-02-01T03:56:30;9.57;;;5.27;;
7989;SDS011;4040;42.848;23.034;2023-02-01T03:58:58;8.00;;;4.83;;
7989;SDS011;4040;42.848;23.034;2023-02-01T04:01:26;3.97;;;3.50;;
7989;SDS011;4040;42.848;23.034;2023-02-01T04:03:56;6.00;;;4.47;;
7989;SDS011;4040;42.848;23.034;2023-02-01T04:06:24;6.47;;;4.43;;
7989;SDS011;4040;42.848;23.034;2023-02-01T04:08:51;5.83;;;4.17;;
7989;SDS011;4040;42.848;23.034;2023-02-01T04:11:20;7.13;;;4.87;;
7989;SDS011;4040;42.848;23.034;2023-02-01T04:13:47;5.73;;;4.77;;
7989;SDS011;4040;42.848;23.034;2023-02-01T04:16:15;9.73;;;6.10;;
7989;SDS011;4040;42.848;23.034;2023-02-01T04:18:42;8.83;;;5.70;;
7989;SDS011;4040;42.848;23.034;2023-02-01T04:21:09;24.53;;;10.83;;
7989;SDS011;4040;42.848;23.034;2023-02-01T04:23:36;85.00;;;26.67;;
7989;SDS011;4040;42.848;23.034;2023-02-01T04:26:04;85.17;;;26.37;;
7989;SDS011;4040;42.848;23.034;2023-02-01T04:28:33;112.40;;;35.53;;
7989;SDS011;4040;42.848;23.034;2023-02-01T04:31:00;120.13;;;37.07;;
7989;SDS011;4040;42.848;23.034;2023-02-01T04:33:27;70.27;;;21.40;;
7989;SDS011;4040;42.848;23.034;2023-02-01T04:35:55;112.03;;;35.07;;
7989;SDS011;4040;42.848;23.034;2023-02-01T04:38:22;123.83;;;33.80;;
7989;SDS011;4040;42.848;23.034;2023-02-01T04:40:49;73.33;;;20.33;;
7989;SDS011;4040;42.848;23.034;2023-02-01T04:43:17;34.93;;;13.93;;
7989;SDS011;4040;42.848;23.034;2023-02-01T04:45:49;18.57;;;8.90;;
7989;SDS011;4040;42.848;23.034;2023-02-01T04:48:18;22.17;;;9.77;;
7989;SDS011;4040;42.848;23.034;2023-02-01T04:50:46;12.13;;;6.47;;
7989;SDS011;4040;42.848;23.034;2023-02-01T04:53:15;11.60;;;6.47;;
7989;SDS011;4040;42.848;23.034;2023-02-01T04:55:43;6.70;;;4.80;;
7989;SDS011;4040;42.848;23.034;2023-02-01T04:58:10;6.90;;;5.03;;
7989;SDS011;4040;42.848;23.034;2023-02-01T05:00:38;9.23;;;5.33;;
7989;SDS011;4040;42.848;23.034;2023-02-01T05:03:07;17.47;;;8.10;;
7989;SDS011;4040;42.848;23.034;2023-02-01T05:05:34;13.53;;;7.43;;
7989;SDS011;4040;42.848;23.034;2023-02-01T05:08:01;10.13;;;5.87;;
7989;SDS011;4040;42.848;23.034;2023-02-01T05:10:29;5.73;;;4.90;;
7989;SDS011;4040;42.848;23.034;2023-02-01T05:12:56;6.20;;;4.70;;
7989;SDS011;4040;42.848;23.034;2023-02-01T05:15:40;8.47;;;5.07;;
7989;SDS011;4040;42.848;23.034;2023-02-01T05:18:09;11.67;;;6.37;;
7989;SDS011;4040;42.848;23.034;2023-02-01T05:20:36;8.90;;;4.30;;
7989;SDS011;4040;42.848;23.034;2023-02-01T05:23:04;7.87;;;4.50;;
7989;SDS011;4040;42.848;23.034;2023-02-01T05:25:31;9.20;;;4.60;;
7989;SDS011;4040;42.848;23.034;2023-02-01T05:27:58;10.27;;;5.00;;
7989;SDS011;4040;42.848;23.034;2023-02-01T05:30:26;6.63;;;5.43;;
7989;SDS011;4040;42.848;23.034;2023-02-01T05:32:53;6.00;;;4.77;;
7989;SDS011;4040;42.848;23.034;2023-02-01T05:35:22;9.57;;;4.93;;
7989;SDS011;4040;42.848;23.034;2023-02-01T05:37:50;8.93;;;6.47;;
7989;SDS011;4040;42.848;23.034;2023-02-01T05:40:18;11.07;;;6.70;;
7989;SDS011;4040;42.848;23.034;2023-02-01T05:42:46;8.43;;;5.23;;
7989;SDS011;4040;42.848;23.034;2023-02-01T05:45:13;7.80;;;4.97;;
7989;SDS011;4040;42.848;23.034;2023-02-01T05:47:41;6.33;;;5.20;;
7989;SDS011;4040;42.848;23.034;2023-02-01T05:50:09;7.93;;;4.13;;
7989;SDS011;4040;42.848;23.034;2023-02-01T05:52:37;5.00;;;4.50;;
7989;SDS011;4040;42.848;23.034;2023-02-01T05:55:05;11.10;;;5.30;;
7989;SDS011;4040;42.848;23.034;2023-02-01T05:57:32;10.87;;;5.80;;
7989;SDS011;4040;42.848;23.034;2023-02-01T06:00:00;11.67;;;5.80;;
7989;SDS011;4040;42.848;23.034;2023-02-01T06:02:27;10.43;;;6.57;;
7989;SDS011;4040;42.848;23.034;2023-02-01T06:04:54;12.30;;;7.47;;
7989;SDS011;4040;42.848;23.034;2023-02-01T06:07:22;10.13;;;6.63;;
7989;SDS011;4040;42.848;23.034;2023-02-01T06:09:50;20.73;;;11.47;;
7989;SDS011;4040;42.848;23.034;2023-02-01T06:12:18;19.47;;;10.30;;
7989;SDS011;4040;42.848;23.034;2023-02-01T06:14:45;13.70;;;9.03;;
7989;SDS011;4040;42.848;23.034;2023-02-01T06:17:12;10.03;;;6.67;;
7989;SDS011;4040;42.848;23.034;2023-02-01T06:19:40;16.20;;;11.07;;
7989;SDS011;4040;42.848;23.034;2023-02-01T06:22:09;11.47;;;9.53;;
7989;SDS011;4040;42.848;23.034;2023-02-01T06:24:36;13.10;;;9.47;;
7989;SDS011;4040;42.848;23.034;2023-02-01T06:27:05;13.03;;;8.43;;
7989;SDS011;4040;42.848;23.034;2023-02-01T06:29:32;7.40;;;6.10;;
7989;SDS011;4040;42.848;23.034;2023-02-01T06:31:59;11.17;;;6.23;;
7989;SDS011;4040;42.848;23.034;2023-02-01T06:34:27;10.40;;;7.40;;
7989;SDS011;4040;42.848;23.034;2023-02-01T06:36:54;10.37;;;7.40;;
7989;SDS011;4040;42.848;23.034;2023-02-01T06:39:21;12.50;;;8.10;;
7989;SDS011;4040;42.848;23.034;2023-02-01T06:41:49;7.97;;;6.37;;
7989;SDS011;4040;42.848;23.034;2023-02-01T06:44:18;9.33;;;5.70;;
7989;SDS011;4040;42.848;23.034;2023-02-01T06:46:46;12.33;;;7.50;;
7989;SDS011;4040;42.848;23.034;2023-02-01T06:49:13;18.07;;;9.73;;
7989;SDS011;4040;42.848;23.034;2023-02-01T06:51:40;10.30;;;5.90;;
7989;SDS011;4040;42.848;23.034;2023-02-01T06:54:07;11.10;;;8.70;;
7989;SDS011;4040;42.848;23.034;2023-02-01T06:56:35;11.07;;;7.57;;
7989;SDS011;4040;42.848;23.034;2023-02-01T06:59:03;12.47;;;8.87;;
7989;SDS011;4040;42.848;23.034;2023-02-01T07:01:32;10.10;;;7.43;;
7989;SDS011;4040;42.848;23.034;2023-02-01T07:03:59;9.73;;;7.93;;
7989;SDS011;4040;42.848;23.034;2023-02-01T07:06:27;16.13;;;9.87;;
7989;SDS011;4040;42.848;23.034;2023-02-01T07:08:54;18.87;;;10.93;;
7989;SDS011;4040;42.848;23.034;2023-02-01T07:11:22;12.73;;;6.67;;
7989;SDS011;4040;42.848;23.034;2023-02-01T07:13:49;9.97;;;6.53;;
7989;SDS011;4040;42.848;23.034;2023-02-01T07:16:17;8.60;;;5.90;;
7989;SDS011;4040;42.848;23.034;2023-02-01T07:18:47;12.27;;;6.83;;
7989;SDS011;4040;42.848;23.034;2023-02-01T07:21:16;12.10;;;6.53;;
7989;SDS011;4040;42.848;23.034;2023-02-01T07:23:44;9.60;;;5.10;;
7989;SDS011;4040;42.848;23.034;2023-02-01T07:26:12;10.97;;;6.67;;
7989;SDS011;4040;42.848;23.034;2023-02-01T07:28:41;11.23;;;7.40;;
7989;SDS011;4040;42.848;23.034;2023-02-01T07:31:09;16.30;;;9.97;;
7989;SDS011;4040;42.848;23.034;2023-02-01T07:33:38;19.93;;;12.87;;
7989;SDS011;4040;42.848;23.034;2023-02-01T07:36:10;25.73;;;14.93;;
7989;SDS011;4040;42.848;23.034;2023-02-01T07:38:39;19.93;;;12.30;;
7989;SDS011;4040;42.848;23.034;2023-02-01T07:41:06;15.97;;;8.67;;
7989;SDS011;4040;42.848;23.034;2023-02-01T07:43:34;18.73;;;9.07;;
7989;SDS011;4040;42.848;23.034;2023-02-01T07:46:02;9.97;;;6.10;;
7989;SDS011;4040;42.848;23.034;2023-02-01T07:48:31;8.03;;;5.23;;
7989;SDS011;4040;42.848;23.034;2023-02-01T07:50:59;9.63;;;6.70;;
7989;SDS011;4040;42.848;23.034;2023-02-01T07:53:30;13.90;;;7.40;;
7989;SDS011;4040;42.848;23.034;2023-02-01T07:55:58;39.57;;;15.67;;
7989;SDS011;4040;42.848;23.034;2023-02-01T07:58:25;18.90;;;10.53;;
7989;SDS011;4040;42.848;23.034;2023-02-01T08:00:54;17.93;;;9.83;;
7989;SDS011;4040;42.848;23.034;2023-02-01T08:03:39;7.13;;;4.97;;
7989;SDS011;4040;42.848;23.034;2023-02-01T08:06:06;9.63;;;5.77;;
7989;SDS011;4040;42.848;23.034;2023-02-01T08:08:35;8.53;;;4.90;;
7989;SDS011;4040;42.848;23.034;2023-02-01T08:11:03;7.50;;;5.37;;
7989;SDS011;4040;42.848;23.034;2023-02-01T08:13:32;6.60;;;4.43;;
7989;SDS011;4040;42.848;23.034;2023-02-01T08:16:00;7.30;;;5.27;;
7989;SDS011;4040;42.848;23.034;2023-02-01T08:18:29;6.73;;;4.70;;
7989;SDS011;4040;42.848;23.034;2023-02-01T08:21:01;6.37;;;4.33;;
7989;SDS011;4040;42.848;23.034;2023-02-01T08:23:30;6.63;;;3.87;;
7989;SDS011;4040;42.848;23.034;2023-02-01T08:26:05;10.97;;;6.30;;
7989;SDS011;4040;42.848;23.034;2023-02-01T08:28:33;11.63;;;6.50;;
7989;SDS011;4040;42.848;23.034;2023-02-01T08:31:03;14.13;;;8.17;;
7989;SDS011;4040;42.848;23.034;2023-02-01T08:33:31;12.43;;;7.30;;
7989;SDS011;4040;42.848;23.034;2023-02-01T08:36:00;21.83;;;10.03;;
7989;SDS011;4040;42.848;23.034;2023-02-01T08:38:28;18.63;;;9.93;;
7989;SDS011;4040;42.848;23.034;2023-02-01T08:40:55;15.50;;;8.20;;
7989;SDS011;4040;42.848;23.034;2023-02-01T08:43:24;21.10;;;8.40;;
7989;SDS011;4040;42.848;23.034;2023-02-01T08:45:53;18.50;;;9.43;;
7989;SDS011;4040;42.848;23.034;2023-02-01T08:48:22;8.30;;;5.03;;
7989;SDS011;4040;42.848;23.034;2023-02-01T08:50:49;27.53;;;12.60;;
7989;SDS011;4040;42.848;23.034;2023-02-01T08:53:16;16.33;;;8.23;;
7989;SDS011;4040;42.848;23.034;2023-02-01T08:55:45;8.80;;;5.77;;
7989;SDS011;4040;42.848;23.034;2023-02-01T08:58:12;13.87;;;6.93;;
7989;SDS011;4040;42.848;23.034;2023-02-01T09:00:43;32.00;;;15.13;;
7989;SDS011;4040;42.848;23.034;2023-02-01T09:03:11;19.97;;;9.60;;
7989;SDS011;4040;42.848;23.034;2023-02-01T09:05:38;20.57;;;8.57;;
7989;SDS011;4040;42.848;23.034;2023-02-01T09:08:06;18.40;;;9.37;;
7989;SDS011;4040;42.848;23.034;2023-02-01T09:10:33;5.60;;;3.70;;
7989;SDS011;4040;42.848;23.034;2023-02-01T09:13:01;14.00;;;7.40;;
7989;SDS011;4040;42.848;23.034;2023-02-01T09:15:29;9.53;;;5.20;;
7989;SDS011;4040;42.848;23.034;2023-02-01T09:17:58;9.67;;;5.97;;
7989;SDS011;4040;42.848;23.034;2023-02-01T09:20:26;9.93;;;5.83;;
7989;SDS011;4040;42.848;23.034;2023-02-01T09:22:54;5.13;;;2.77;;
7989;SDS011;4040;42.848;23.034;2023-02-01T09:25:22;9.53;;;5.83;;
7989;SDS011;4040;42.848;23.034;2023-02-01T09:27:49;9.13;;;4.67;;
7989;SDS011;4040;42.848;23.034;2023-02-01T09:30:17;15.53;;;7.53;;
7989;SDS011;4040;42.848;23.034;2023-02-01T09:32:44;3.73;;;2.60;;
7989;SDS011;4040;42.848;23.034;2023-02-01T09:35:13;25.87;;;13.10;;
7989;SDS011;4040;42.848;23.034;2023-02-01T09:37:40;20.80;;;9.63;;
7989;SDS011;4040;42.848;23.034;2023-02-01T09:40:08;7.20;;;4.60;;
7989;SDS011;4040;42.848;23.034;2023-02-01T09:42:47;10.40;;;5.57;;
7989;SDS011;4040;42.848;23.034;2023-02-01T09:45:27;6.63;;;3.83;;
7989;SDS011;4040;42.848;23.034;2023-02-01T09:48:02;6.43;;;4.35;;
7989;SDS011;4040;42.848;23.034;2023-02-01T09:50:38;8.93;;;4.68;;
7989;SDS011;4040;42.848;23.034;2023-02-01T09:53:10;79.65;;;31.08;;
7989;SDS011;4040;42.848;23.034;2023-02-01T09:55:42;47.90;;;25.10;;
7989;SDS011;4040;42.848;23.034;2023-02-01T09:58:13;19.00;;;12.20;;
7989;SDS011;4040;42.848;23.034;2023-02-01T10:00:44;11.32;;;7.40;;
7989;SDS011;4040;42.848;23.034;2023-02-01T10:03:18;6.93;;;4.35;;
7989;SDS011;4040;42.848;23.034;2023-02-01T10:06:00;8.90;;;4.15;;
7989;SDS011;4040;42.848;23.034;2023-02-01T10:08:46;3.47;;;2.33;;
7989;SDS011;4040;42.848;23.034;2023-02-01T10:11:30;7.40;;;4.57;;
7989;SDS011;4040;42.848;23.034;2023-02-01T10:14:17;9.55;;;4.43;;
7989;SDS011;4040;42.848;23.034;2023-02-01T10:17:01;8.13;;;4.13;;
7989;SDS011;4040;42.848;23.034;2023-02-01T10:19:39;5.60;;;3.10;;
7989;SDS011;4040;42.848;23.034;2023-02-01T10:22:18;8.33;;;4.10;;
7989;SDS011;4040;42.848;23.034;2023-02-01T10:24:55;16.03;;;7.97;;
7989;SDS011;4040;42.848;23.034;2023-02-01T10:27:28;11.70;;;6.00;;
7989;SDS011;4040;42.848;23.034;2023-02-01T10:30:01;11.60;;;5.33;;
7989;SDS011;4040;42.848;23.034;2023-02-01T10:32:38;6.20;;;3.03;;
7989;SDS011;4040;42.848;23.034;2023-02-01T10:35:08;8.93;;;3.97;;
7989;SDS011;4040;42.848;23.034;2023-02-01T10:37:41;8.57;;;5.00;;
7989;SDS011;4040;42.848;23.034;2023-02-01T10:40:13;7.67;;;3.57;;
7989;SDS011;4040;42.848;23.034;2023-02-01T10:42:45;5.80;;;3.27;;
7989;SDS011;4040;42.848;23.034;2023-02-01T10:45:13;4.70;;;2.70;;
7989;SDS011;4040;42.848;23.034;2023-02-01T10:47:43;7.93;;;3.90;;
7989;SDS011;4040;42.848;23.034;2023-02-01T10:50:15;10.00;;;4.10;;
7989;SDS011;4040;42.848;23.034;2023-02-01T10:52:48;5.23;;;3.90;;
7989;SDS011;4040;42.848;23.034;2023-02-01T10:55:26;7.30;;;3.90;;
7989;SDS011;4040;42.848;23.034;2023-02-01T10:58:00;5.43;;;4.37;;
7989;SDS011;4040;42.848;23.034;2023-02-01T11:00:34;8.17;;;4.60;;
7989;SDS011;4040;42.848;23.034;2023-02-01T11:05:59;7.07;;;3.10;;
7989;SDS011;4040;42.848;23.034;2023-02-01T11:08:30;8.03;;;4.77;;
7989;SDS011;4040;42.848;23.034;2023-02-01T11:10:58;12.37;;;5.50;;
7989;SDS011;4040;42.848;23.034;2023-02-01T11:13:30;9.20;;;3.63;;
7989;SDS011;4040;42.848;23.034;2023-02-01T11:16:01;6.63;;;4.27;;
7989;SDS011;4040;42.848;23.034;2023-02-01T11:18:30;7.50;;;4.27;;
7989;SDS011;4040;42.848;23.034;2023-02-01T11:21:01;10.67;;;5.23;;
7989;SDS011;4040;42.848;23.034;2023-02-01T11:23:32;15.27;;;7.07;;
7989;SDS011;4040;42.848;23.034;2023-02-01T11:26:02;12.83;;;6.23;;
7989;SDS011;4040;42.848;23.034;2023-02-01T11:28:38;16.00;;;7.60;;
7989;SDS011;4040;42.848;23.034;2023-02-01T11:31:09;3.80;;;2.57;;
7989;SDS011;4040;42.848;23.034;2023-02-01T11:33:39;5.23;;;2.90;;
7989;SDS011;4040;42.848;23.034;2023-02-01T11:36:15;9.83;;;4.30;;
7989;SDS011;4040;42.848;23.034;2023-02-01T11:38:47;4.93;;;2.43;;
7989;SDS011;4040;42.848;23.034;2023-02-01T11:41:21;7.03;;;3.30;;
7989;SDS011;4040;42.848;23.034;2023-02-01T11:43:51;5.07;;;2.97;;
7989;SDS011;4040;42.848;23.034;2023-02-01T11:46:22;7.17;;;3.10;;
7989;SDS011;4040;42.848;23.034;2023-02-01T11:48:52;10.87;;;5.37;;
7989;SDS011;4040;42.848;23.034;2023-02-01T11:51:24;9.33;;;5.23;;
7989;SDS011;4040;42.848;23.034;2023-02-01T11:54:09;9.20;;;5.17;;
7989;SDS011;4040;42.848;23.034;2023-02-01T11:56:49;7.27;;;4.27;;
7989;SDS011;4040;42.848;23.034;2023-02-01T11:59:38;8.73;;;4.77;;
7989;SDS011;4040;42.848;23.034;2023-02-01T12:02:26;4.03;;;2.50;;
7989;SDS011;4040;42.848;23.034;2023-02-01T12:05:23;5.83;;;3.97;;
7989;SDS011;4040;42.848;23.034;2023-02-01T12:08:16;7.23;;;4.50;;
7989;SDS011;4040;42.848;23.034;2023-02-01T12:11:01;5.27;;;2.17;;
7989;SDS011;4040;42.848;23.034;2023-02-01T12:13:42;5.97;;;3.27;;
7989;SDS011;4040;42.848;23.034;2023-02-01T12:16:23;7.97;;;4.17;;
7989;SDS011;4040;42.848;23.034;2023-02-01T12:22:08;2.70;;;1.77;;
7989;SDS011;4040;42.848;23.034;2023-02-01T12:24:52;10.37;;;4.53;;
7989;SDS011;4040;42.848;23.034;2023-02-01T12:27:49;9.60;;;3.73;;
7989;SDS011;4040;42.848;23.034;2023-02-01T12:30:43;12.80;;;4.83;;
7989;SDS011;4040;42.848;23.034;2023-02-01T12:33:23;3.47;;;2.47;;
7989;SDS011;4040;42.848;23.034;2023-02-01T12:36:05;2.93;;;2.10;;
7989;SDS011;4040;42.848;23.034;2023-02-01T12:38:51;7.73;;;3.97;;
7989;SDS011;4040;42.848;23.034;2023-02-01T12:44:18;7.73;;;3.67;;
7989;SDS011;4040;42.848;23.034;2023-02-01T12:46:54;4.77;;;3.60;;
7989;SDS011;4040;42.848;23.034;2023-02-01T12:49:27;10.50;;;4.30;;
7989;SDS011;4040;42.848;23.034;2023-02-01T12:52:02;6.60;;;3.50;;
7989;SDS011;4040;42.848;23.034;2023-02-01T12:54:37;18.87;;;8.33;;
7989;SDS011;4040;42.848;23.034;2023-02-01T12:57:10;5.13;;;2.53;;
7989;SDS011;4040;42.848;23.034;2023-02-01T12:59:44;25.50;;;9.00;;
7989;SDS011;4040;42.848;23.034;2023-02-01T13:02:18;5.13;;;2.90;;
7989;SDS011;4040;42.848;23.034;2023-02-01T13:04:54;17.17;;;8.60;;
7989;SDS011;4040;42.848;23.034;2023-02-01T13:07:29;4.73;;;3.13;;
7989;SDS011;4040;42.848;23.034;2023-02-01T13:10:02;7.57;;;4.13;;
7989;SDS011;4040;42.848;23.034;2023-02-01T13:12:38;6.57;;;3.03;;
7989;SDS011;4040;42.848;23.034;2023-02-01T13:15:14;6.10;;;3.00;;
7989;SDS011;4040;42.848;23.034;2023-02-01T13:17:44;5.93;;;3.50;;
7989;SDS011;4040;42.848;23.034;2023-02-01T13:20:16;4.93;;;3.33;;
7989;SDS011;4040;42.848;23.034;2023-02-01T13:22:48;7.77;;;4.20;;
7989;SDS011;4040;42.848;23.034;2023-02-01T13:25:25;5.30;;;3.10;;
7989;SDS011;4040;42.848;23.034;2023-02-01T13:28:00;4.63;;;2.20;;
7989;SDS011;4040;42.848;23.034;2023-02-01T13:30:37;6.60;;;3.50;;
7989;SDS011;4040;42.848;23.034;2023-02-01T13:33:19;5.30;;;3.60;;
7989;SDS011;4040;42.848;23.034;2023-02-01T13:36:04;8.30;;;3.40;;
7989;SDS011;4040;42.848;23.034;2023-02-01T13:41:51;5.57;;;3.80;;
7989;SDS011;4040;42.848;23.034;2023-02-01T13:44:23;8.17;;;4.60;;
7989;SDS011;4040;42.848;23.034;2023-02-01T13:46:57;6.73;;;4.00;;
7989;SDS011;4040;42.848;23.034;2023-02-01T13:49:27;5.33;;;3.27;;
7989;SDS011;4040;42.848;23.034;2023-02-01T13:51:57;8.03;;;4.10;;
7989;SDS011;4040;42.848;23.034;2023-02-01T13:54:26;5.77;;;2.97;;
7989;SDS011;4040;42.848;23.034;2023-02-01T13:56:56;6.50;;;3.10;;
7989;SDS011;4040;42.848;23.034;2023-02-01T14:02:46;8.60;;;3.43;;
7989;SDS011;4040;42.848;23.034;2023-02-01T14:08:36;5.30;;;3.30;;
7989;SDS011;4040;42.848;23.034;2023-02-01T14:11:37;5.33;;;2.90;;
7989;SDS011;4040;42.848;23.034;2023-02-01T14:14:07;5.37;;;3.43;;
7989;SDS011;4040;42.848;23.034;2023-02-01T14:23:16;6.10;;;3.47;;
7989;SDS011;4040;42.848;23.034;2023-02-01T14:25:46;5.27;;;3.07;;
7989;SDS011;4040;42.848;23.034;2023-02-01T14:28:28;7.77;;;3.00;;
7989;SDS011;4040;42.848;23.034;2023-02-01T14:30:57;9.37;;;2.80;;
7989;SDS011;4040;42.848;23.034;2023-02-01T14:33:26;4.70;;;2.57;;
7989;SDS011;4040;42.848;23.034;2023-02-01T14:36:01;28.20;;;11.23;;
7989;SDS011;4040;42.848;23.034;2023-02-01T14:38:34;9.27;;;3.27;;
7989;SDS011;4040;42.848;23.034;2023-02-01T14:41:23;25.33;;;9.00;;
7989;SDS011;4040;42.848;23.034;2023-02-01T14:49:54;17.37;;;6.87;;
7989;SDS011;4040;42.848;23.034;2023-02-01T14:52:29;10.83;;;5.00;;
7989;SDS011;4040;42.848;23.034;2023-02-01T14:55:03;14.63;;;4.90;;
7989;SDS011;4040;42.848;23.034;2023-02-01T14:57:34;14.50;;;7.07;;
7989;SDS011;4040;42.848;23.034;2023-02-01T15:00:10;12.90;;;5.50;;
7989;SDS011;4040;42.848;23.034;2023-02-01T15:02:45;6.17;;;3.13;;
7989;SDS011;4040;42.848;23.034;2023-02-01T15:05:25;14.87;;;5.83;;
7989;SDS011;4040;42.848;23.034;2023-02-01T15:08:11;5.60;;;3.20;;
7989;SDS011;4040;42.848;23.034;2023-02-01T15:10:45;8.27;;;4.23;;
7989;SDS011;4040;42.848;23.034;2023-02-01T15:13:20;14.40;;;5.67;;
7989;SDS011;4040;42.848;23.034;2023-02-01T15:16:01;57.73;;;10.97;;
7989;SDS011;4040;42.848;23.034;2023-02-01T15:18:29;22.30;;;6.93;;
7989;SDS011;4040;42.848;23.034;2023-02-01T15:20:58;131.23;;;20.80;;
7989;SDS011;4040;42.848;23.034;2023-02-01T15:23:27;27.00;;;6.80;;
7989;SDS011;4040;42.848;23.034;2023-02-01T15:25:56;55.07;;;13.17;;
7989;SDS011;4040;42.848;23.034;2023-02-01T15:28:24;18.33;;;7.63;;
7989;SDS011;4040;42.848;23.034;2023-02-01T15:30:54;10.33;;;5.47;;
7989;SDS011;4040;42.848;23.034;2023-02-01T15:33:23;11.90;;;6.63;;
7989;SDS011;4040;42.848;23.034;2023-02-01T15:35:52;13.97;;;6.40;;
7989;SDS011;4040;42.848;23.034;2023-02-01T15:38:34;30.03;;;12.10;;
7989;SDS011;4040;42.848;23.034;2023-02-01T15:41:08;57.50;;;21.83;;
7989;SDS011;4040;42.848;23.034;2023-02-01T15:43:40;41.93;;;18.20;;
7989;SDS011;4040;42.848;23.034;2023-02-01T15:46:13;36.53;;;11.30;;
7989;SDS011;4040;42.848;23.034;2023-02-01T15:48:43;23.57;;;10.10;;
7989;SDS011;4040;42.848;23.034;2023-02-01T15:51:17;28.43;;;12.03;;
7989;SDS011;4040;42.848;23.034;2023-02-01T15:53:47;26.23;;;12.73;;